»·PEaware :: N612C KSNA-KCRQ

N612C :: KSNA-KCRQ

FLIGHT INFORMATION

Flight Status: Arrived
Operator: Privately registered:
United States
More flights under this callsign
Pilot: Don H. (15606)
Aircraft: SOCATA TBM-850
(TBM8)
More flights by this aircraft type
Origin: KSNA John Wayne-Orange Co
United States
Destination: KCRQ McClellan-Palomar
United States
More flights between these airports :: More routes between these airports
Route: +DCT
File this flight plan on PilotEdge
Remarks:
Altitude:
(Current/Filed)
4,500ft
Speed:
(Current/Filed)
225kts
Departed: 03-Oct-18 01:59 PM
Arrived: 03-Oct-18 02:17 PM
Distance/Time
Traveled:
44nm/0:18
Distance/Time
To Go:
Arrived

Flight Plot

Page will automatically refresh every two minutes.


Map Options




Map Legend


Flown Route
Filed Route
Departure Airport
Arrival Airport
Navaid (VOR, NDB)
Fix

Horizontal Profiles

Position Reports

Time Latitude Longitude Heading Altitude Ground
Speed
03-Oct-18 13:45 33.670771 -117.874133 209 59ft 0kts
03-Oct-18 13:46 33.670771 -117.874133 209 59ft 0kts
03-Oct-18 13:47 33.670771 -117.874133 209 59ft 0kts
03-Oct-18 13:48 33.673012 -117.872010 19 59ft 0kts
03-Oct-18 13:49 33.673012 -117.872010 19 59ft 0kts
03-Oct-18 13:50 33.673021 -117.872007 12 59ft 1kts
03-Oct-18 13:51 33.672784 -117.872899 206 59ft 0kts
03-Oct-18 13:52 33.672784 -117.872899 206 59ft 0kts
03-Oct-18 13:53 33.672784 -117.872899 206 59ft 0kts
03-Oct-18 13:54 33.672749 -117.872913 188 59ft 3kts
03-Oct-18 13:55 33.675490 -117.870439 28 59ft 25kts
03-Oct-18 13:56 33.679839 -117.867859 21 59ft 10kts
03-Oct-18 13:57 33.681904 -117.866022 105 59ft 0kts
03-Oct-18 13:58 33.681904 -117.866022 105 59ft 0kts
03-Oct-18 13:59 33.681904 -117.866022 105 59ft 0kts
03-Oct-18 14:00 33.681180 -117.865356 212 59ft 0kts
03-Oct-18 14:01 33.669928 -117.873009 210 430ft 101kts
03-Oct-18 14:02 33.640068 -117.878370 186 1812ft 135kts
03-Oct-18 14:03 33.602888 -117.883406 186 3627ft 140kts
03-Oct-18 14:04 33.564105 -117.888627 185 5013ft 166kts
03-Oct-18 14:05 33.531579 -117.842756 134 5016ft 216kts
03-Oct-18 14:06 33.489857 -117.787348 131 4998ft 233kts
03-Oct-18 14:07 33.447618 -117.728251 131 4996ft 237kts
03-Oct-18 14:08 33.405239 -117.668606 131 4995ft 238kts
03-Oct-18 14:09 33.362693 -117.608756 131 4995ft 238kts
03-Oct-18 14:10 33.320030 -117.548831 131 4995ft 238kts
03-Oct-18 14:11 33.276585 -117.487927 130 3966ft 253kts
03-Oct-18 14:12 33.237290 -117.432819 131 2895ft 194kts
03-Oct-18 14:13 33.218822 -117.387852 104 1950ft 133kts
03-Oct-18 14:14 33.211052 -117.350539 104 1374ft 97kts
03-Oct-18 14:15 33.202469 -117.328086 167 1139ft 81kts
03-Oct-18 14:16 33.193297 -117.301654 107 1624ft 129kts
03-Oct-18 14:17 33.161978 -117.259184 136 1836ft 200kts
03-Oct-18 14:18 33.130964 -117.260528 270 633ft 128kts
03-Oct-18 14:19 33.127463 -117.282624 207 334ft 7kts
03-Oct-18 14:20 33.127216 -117.282662 157 334ft 0kts
03-Oct-18 14:21 33.127114 -117.279874 109 334ft 15kts
03-Oct-18 14:22 33.127101 -117.279022 78 334ft 0kts
03-Oct-18 14:23 33.127101 -117.279022 78 334ft 0kts
03-Oct-18 14:24 33.127101 -117.279022 78 334ft 0kts
03-Oct-18 14:25 33.127101 -117.279022 78 334ft 0kts
03-Oct-18 14:26 33.127101 -117.279022 78 334ft 0kts
03-Oct-18 14:27 33.127101 -117.279022 78 334ft 0kts
03-Oct-18 14:28 33.127101 -117.279022 78 334ft 0kts
03-Oct-18 14:29 33.127101 -117.279022 78 334ft 0kts
03-Oct-18 14:30 33.127101 -117.279022 78 334ft 0kts
03-Oct-18 14:31 33.127101 -117.279022 78 334ft 0kts
03-Oct-18 14:32 33.127101 -117.279022 78 334ft 0kts
03-Oct-18 14:33 33.127101 -117.279022 78 334ft 0kts
03-Oct-18 14:34 33.127101 -117.279022 78 334ft 0kts

Navigation Log

Ident Type
Flight plan parsing failed, navigation log unavailable